sensor_id;sensor_type;location;lat;lon;timestamp;pressure;altitude;pressure_sealevel;temperature;humidity
43804;BME280;29430;52.924;-2.388;2023-05-03T00:03:04;100400.56;;;9.03;95.93
43804;BME280;29430;52.924;-2.388;2023-05-03T00:07:57;100408.66;;;9.03;96.14
43804;BME280;29430;52.924;-2.388;2023-05-03T00:12:49;100408.66;;;9.03;96.53
43804;BME280;29430;52.924;-2.388;2023-05-03T00:17:41;100413.25;;;9.03;96.35
43804;BME280;29430;52.924;-2.388;2023-05-03T00:22:33;100413.06;;;9.04;96.44
43804;BME280;29430;52.924;-2.388;2023-05-03T00:27:25;100392.44;;;9.03;97.02
43804;BME280;29430;52.924;-2.388;2023-05-03T00:32:20;100392.44;;;9.03;97.23
43804;BME280;29430;52.924;-2.388;2023-05-03T00:37:13;100386.19;;;9.03;97.40
43804;BME280;29430;52.924;-2.388;2023-05-03T00:42:05;100380.34;;;8.99;97.52
43804;BME280;29430;52.924;-2.388;2023-05-03T00:46:57;100394.69;;;9.00;97.95
43804;BME280;29430;52.924;-2.388;2023-05-03T00:51:49;100394.88;;;8.98;97.82
43804;BME280;29430;52.924;-2.388;2023-05-03T00:56:41;100375.50;;;8.94;98.27
43804;BME280;29430;52.924;-2.388;2023-05-03T01:01:44;100373.63;;;8.95;98.86
43804;BME280;29430;52.924;-2.388;2023-05-03T01:06:47;100363.19;;;8.92;98.58
43804;BME280;29430;52.924;-2.388;2023-05-03T01:21:33;100334.69;;;8.74;99.28
43804;BME280;29430;52.924;-2.388;2023-05-03T01:26:27;100333.31;;;8.64;99.71
43804;BME280;29430;52.924;-2.388;2023-05-03T01:31:52;100332.38;;;8.56;99.72
43804;BME280;29430;52.924;-2.388;2023-05-03T01:36:47;100330.19;;;8.45;100.00
43804;BME280;29430;52.924;-2.388;2023-05-03T01:41:41;100329.22;;;8.38;100.00
43804;BME280;29430;52.924;-2.388;2023-05-03T01:46:33;100332.22;;;8.28;100.00
43804;BME280;29430;52.924;-2.388;2023-05-03T01:51:24;100318.13;;;8.18;100.00
43804;BME280;29430;52.924;-2.388;2023-05-03T01:56:16;100336.78;;;8.13;100.00
43804;BME280;29430;52.924;-2.388;2023-05-03T02:01:08;100327.94;;;8.04;100.00
43804;BME280;29430;52.924;-2.388;2023-05-03T02:06:00;100332.00;;;8.00;100.00
43804;BME280;29430;52.924;-2.388;2023-05-03T02:10:52;100346.75;;;7.97;100.00
43804;BME280;29430;52.924;-2.388;2023-05-03T02:15:43;100337.50;;;7.92;100.00
43804;BME280;29430;52.924;-2.388;2023-05-03T02:20:35;100349.34;;;7.91;100.00
43804;BME280;29430;52.924;-2.388;2023-05-03T02:25:28;100345.81;;;7.90;100.00
43804;BME280;29430;52.924;-2.388;2023-05-03T02:30:20;100342.63;;;7.86;100.00
43804;BME280;29430;52.924;-2.388;2023-05-03T02:35:12;100343.38;;;7.80;100.00
43804;BME280;29430;52.924;-2.388;2023-05-03T02:40:04;100340.00;;;7.78;100.00
43804;BME280;29430;52.924;-2.388;2023-05-03T02:44:56;100334.13;;;7.75;100.00
43804;BME280;29430;52.924;-2.388;2023-05-03T02:49:48;100332.81;;;7.70;100.00
43804;BME280;29430;52.924;-2.388;2023-05-03T02:54:39;100336.94;;;7.66;100.00
43804;BME280;29430;52.924;-2.388;2023-05-03T02:59:31;100333.56;;;7.64;100.00
43804;BME280;29430;52.924;-2.388;2023-05-03T03:04:24;100325.00;;;7.61;100.00
43804;BME280;29430;52.924;-2.388;2023-05-03T03:09:15;100327.22;;;7.57;100.00
43804;BME280;29430;52.924;-2.388;2023-05-03T03:14:08;100332.13;;;7.53;100.00
43804;BME280;29430;52.924;-2.388;2023-05-03T03:18:59;100330.84;;;7.49;100.00
43804;BME280;29430;52.924;-2.388;2023-05-03T03:23:51;100328.50;;;7.46;100.00
43804;BME280;29430;52.924;-2.388;2023-05-03T03:28:43;100323.47;;;7.43;100.00
43804;BME280;29430;52.924;-2.388;2023-05-03T03:33:35;100318.44;;;7.40;100.00
43804;BME280;29430;52.924;-2.388;2023-05-03T03:38:27;100319.81;;;7.36;100.00
43804;BME280;29430;52.924;-2.388;2023-05-03T03:43:19;100311.06;;;7.34;100.00
43804;BME280;29430;52.924;-2.388;2023-05-03T03:48:11;100322.41;;;7.29;100.00
43804;BME280;29430;52.924;-2.388;2023-05-03T03:53:03;100313.81;;;7.26;100.00
43804;BME280;29430;52.924;-2.388;2023-05-03T03:57:56;100306.28;;;7.21;100.00
43804;BME280;29430;52.924;-2.388;2023-05-03T04:02:47;100308.69;;;7.16;100.00
43804;BME280;29430;52.924;-2.388;2023-05-03T04:07:40;100313.09;;;7.09;100.00
43804;BME280;29430;52.924;-2.388;2023-05-03T04:12:31;100297.81;;;7.01;100.00
43804;BME280;29430;52.924;-2.388;2023-05-03T04:17:25;100303.75;;;6.96;100.00
43804;BME280;29430;52.924;-2.388;2023-05-03T04:22:17;100310.91;;;6.89;100.00
43804;BME280;29430;52.924;-2.388;2023-05-03T04:27:08;100310.75;;;6.82;100.00
43804;BME280;29430;52.924;-2.388;2023-05-03T04:32:01;100306.78;;;6.78;100.00
43804;BME280;29430;52.924;-2.388;2023-05-03T04:36:54;100307.47;;;6.72;100.00
43804;BME280;29430;52.924;-2.388;2023-05-03T04:41:46;100307.16;;;6.67;100.00
43804;BME280;29430;52.924;-2.388;2023-05-03T04:46:37;100309.56;;;6.62;100.00
43804;BME280;29430;52.924;-2.388;2023-05-03T04:51:30;100309.25;;;6.57;100.00
43804;BME280;29430;52.924;-2.388;2023-05-03T04:56:22;100321.41;;;6.53;100.00
43804;BME280;29430;52.924;-2.388;2023-05-03T05:01:16;100320.56;;;6.52;100.00
43804;BME280;29430;52.924;-2.388;2023-05-03T05:06:09;100323.44;;;6.51;100.00
43804;BME280;29430;52.924;-2.388;2023-05-03T05:11:03;100331.53;;;6.51;100.00
43804;BME280;29430;52.924;-2.388;2023-05-03T05:15:55;100345.66;;;6.53;100.00
43804;BME280;29430;52.924;-2.388;2023-05-03T05:20:47;100334.34;;;6.57;100.00
43804;BME280;29430;52.924;-2.388;2023-05-03T05:25:39;100332.69;;;6.79;100.00
43804;BME280;29430;52.924;-2.388;2023-05-03T05:30:30;100332.25;;;7.22;97.90
43804;BME280;29430;52.924;-2.388;2023-05-03T05:35:22;100343.25;;;7.59;95.73
43804;BME280;29430;52.924;-2.388;2023-05-03T05:40:14;100353.81;;;7.98;94.03
43804;BME280;29430;52.924;-2.388;2023-05-03T05:45:06;100351.59;;;8.32;91.06
43804;BME280;29430;52.924;-2.388;2023-05-03T05:49:58;100355.84;;;8.71;88.36
43804;BME280;29430;52.924;-2.388;2023-05-03T05:54:50;100361.72;;;9.11;86.94
43804;BME280;29430;52.924;-2.388;2023-05-03T05:59:42;100355.84;;;9.50;84.91
43804;BME280;29430;52.924;-2.388;2023-05-03T06:04:34;100353.66;;;9.89;82.87
43804;BME280;29430;52.924;-2.388;2023-05-03T06:09:25;100336.75;;;10.22;80.67
43804;BME280;29430;52.924;-2.388;2023-05-03T06:14:17;100346.53;;;10.58;79.48
43804;BME280;29430;52.924;-2.388;2023-05-03T06:19:11;100347.06;;;10.88;77.68
43804;BME280;29430;52.924;-2.388;2023-05-03T06:24:02;100362.16;;;11.04;75.15
43804;BME280;29430;52.924;-2.388;2023-05-03T06:28:54;100351.53;;;11.09;73.48
43804;BME280;29430;52.924;-2.388;2023-05-03T06:33:45;100352.16;;;11.11;73.17
43804;BME280;29430;52.924;-2.388;2023-05-03T06:38:38;100355.47;;;11.14;72.74
43804;BME280;29430;52.924;-2.388;2023-05-03T06:43:29;100357.84;;;11.43;73.01
43804;BME280;29430;52.924;-2.388;2023-05-03T06:48:21;100345.31;;;11.76;72.67
43804;BME280;29430;52.924;-2.388;2023-05-03T06:53:13;100355.97;;;12.04;70.79
43804;BME280;29430;52.924;-2.388;2023-05-03T06:58:04;100349.84;;;12.29;69.60
43804;BME280;29430;52.924;-2.388;2023-05-03T07:03:00;100353.75;;;12.53;69.69
43804;BME280;29430;52.924;-2.388;2023-05-03T07:07:52;100350.22;;;12.91;66.21
43804;BME280;29430;52.924;-2.388;2023-05-03T07:12:43;100349.22;;;12.85;65.50
43804;BME280;29430;52.924;-2.388;2023-05-03T07:17:35;100347.09;;;12.87;65.33
43804;BME280;29430;52.924;-2.388;2023-05-03T07:22:27;100350.03;;;13.24;65.16
43804;BME280;29430;52.924;-2.388;2023-05-03T07:27:19;100337.53;;;13.74;63.38
43804;BME280;29430;52.924;-2.388;2023-05-03T07:32:11;100340.44;;;13.97;63.45
43804;BME280;29430;52.924;-2.388;2023-05-03T07:37:03;100342.16;;;14.36;61.61
43804;BME280;29430;52.924;-2.388;2023-05-03T07:41:55;100333.72;;;14.56;59.35
43804;BME280;29430;52.924;-2.388;2023-05-03T07:46:46;100334.34;;;14.76;59.97
43804;BME280;29430;52.924;-2.388;2023-05-03T07:51:38;100350.16;;;15.04;57.42
43804;BME280;29430;52.924;-2.388;2023-05-03T07:56:30;100342.53;;;15.07;57.15
43804;BME280;29430;52.924;-2.388;2023-05-03T08:01:22;100332.31;;;15.32;56.26
43804;BME280;29430;52.924;-2.388;2023-05-03T08:06:14;100338.28;;;15.53;55.38
43804;BME280;29430;52.924;-2.388;2023-05-03T08:11:05;100328.91;;;15.72;54.58
43804;BME280;29430;52.924;-2.388;2023-05-03T08:15:57;100330.25;;;15.93;55.11
43804;BME280;29430;52.924;-2.388;2023-05-03T08:20:49;100336.84;;;16.45;53.34
43804;BME280;29430;52.924;-2.388;2023-05-03T08:25:41;100321.34;;;16.91;52.40
43804;BME280;29430;52.924;-2.388;2023-05-03T08:30:33;100326.09;;;17.25;50.10
43804;BME280;29430;52.924;-2.388;2023-05-03T08:35:24;100327.28;;;17.46;50.06
43804;BME280;29430;52.924;-2.388;2023-05-03T08:40:20;100334.41;;;17.81;50.71
43804;BME280;29430;52.924;-2.388;2023-05-03T08:45:14;100320.16;;;18.18;47.26
43804;BME280;29430;52.924;-2.388;2023-05-03T08:50:08;100334.16;;;17.99;47.98
43804;BME280;29430;52.924;-2.388;2023-05-03T08:55:00;100320.28;;;18.06;47.45
43804;BME280;29430;52.924;-2.388;2023-05-03T08:59:52;100328.16;;;18.19;47.76
43804;BME280;29430;52.924;-2.388;2023-05-03T09:04:47;100330.78;;;18.31;46.33
43804;BME280;29430;52.924;-2.388;2023-05-03T09:09:38;100321.38;;;18.27;46.65
43804;BME280;29430;52.924;-2.388;2023-05-03T09:14:40;100316.78;;;18.33;47.18
43804;BME280;29430;52.924;-2.388;2023-05-03T09:19:51;100315.25;;;18.64;46.98
43804;BME280;29430;52.924;-2.388;2023-05-03T09:24:53;100329.38;;;18.73;45.15
43804;BME280;29430;52.924;-2.388;2023-05-03T09:29:46;100322.53;;;18.53;46.36
43804;BME280;29430;52.924;-2.388;2023-05-03T09:34:37;100314.84;;;19.00;45.81
43804;BME280;29430;52.924;-2.388;2023-05-03T09:39:29;100307.50;;;19.05;44.64
43804;BME280;29430;52.924;-2.388;2023-05-03T09:44:47;100310.13;;;19.22;44.15
43804;BME280;29430;52.924;-2.388;2023-05-03T09:49:42;100302.31;;;19.41;43.57
43804;BME280;29430;52.924;-2.388;2023-05-03T09:54:34;100298.00;;;19.50;43.41
43804;BME280;29430;52.924;-2.388;2023-05-03T09:59:26;100305.03;;;19.74;44.50
43804;BME280;29430;52.924;-2.388;2023-05-03T10:04:19;100297.19;;;19.88;43.18
43804;BME280;29430;52.924;-2.388;2023-05-03T10:09:31;100301.31;;;19.85;42.52
43804;BME280;29430;52.924;-2.388;2023-05-03T10:14:24;100299.56;;;19.41;43.08
43804;BME280;29430;52.924;-2.388;2023-05-03T10:24:18;100291.50;;;19.62;42.41
43804;BME280;29430;52.924;-2.388;2023-05-03T10:34:22;100294.31;;;19.40;42.99
43804;BME280;29430;52.924;-2.388;2023-05-03T10:39:15;100283.97;;;19.20;42.55
43804;BME280;29430;52.924;-2.388;2023-05-03T10:44:26;100294.94;;;19.14;43.06
43804;BME280;29430;52.924;-2.388;2023-05-03T10:49:20;100279.97;;;19.00;42.71
43804;BME280;29430;52.924;-2.388;2023-05-03T10:54:12;100265.59;;;18.93;42.44
43804;BME280;29430;52.924;-2.388;2023-05-03T10:59:04;100265.03;;;18.91;43.41
43804;BME280;29430;52.924;-2.388;2023-05-03T11:04:12;100266.16;;;18.95;43.33
43804;BME280;29430;52.924;-2.388;2023-05-03T11:09:09;100253.97;;;18.64;43.19
43804;BME280;29430;52.924;-2.388;2023-05-03T11:14:02;100250.94;;;18.60;43.98
43804;BME280;29430;52.924;-2.388;2023-05-03T11:18:54;100257.38;;;18.49;42.66
43804;BME280;29430;52.924;-2.388;2023-05-03T11:23:46;100242.13;;;18.36;42.99
43804;BME280;29430;52.924;-2.388;2023-05-03T11:28:39;100236.84;;;18.56;43.02
43804;BME280;29430;52.924;-2.388;2023-05-03T11:33:32;100223.50;;;18.65;42.69
43804;BME280;29430;52.924;-2.388;2023-05-03T11:38:26;100228.25;;;18.75;42.75
43804;BME280;29430;52.924;-2.388;2023-05-03T11:43:18;100206.97;;;18.60;41.05
43804;BME280;29430;52.924;-2.388;2023-05-03T11:48:11;100216.84;;;18.34;42.32
43804;BME280;29430;52.924;-2.388;2023-05-03T11:53:03;100202.81;;;18.08;43.58
43804;BME280;29430;52.924;-2.388;2023-05-03T11:57:55;100202.88;;;18.35;45.10
43804;BME280;29430;52.924;-2.388;2023-05-03T12:02:47;100193.69;;;18.52;43.01
43804;BME280;29430;52.924;-2.388;2023-05-03T12:07:39;100191.97;;;18.46;43.57
43804;BME280;29430;52.924;-2.388;2023-05-03T12:12:32;100187.84;;;18.43;43.26
43804;BME280;29430;52.924;-2.388;2023-05-03T12:17:37;100194.38;;;18.37;43.33
43804;BME280;29430;52.924;-2.388;2023-05-03T12:22:34;100172.91;;;18.34;43.46
43804;BME280;29430;52.924;-2.388;2023-05-03T12:27:26;100171.97;;;18.23;42.85
43804;BME280;29430;52.924;-2.388;2023-05-03T12:32:18;100154.94;;;17.99;43.34
43804;BME280;29430;52.924;-2.388;2023-05-03T12:37:13;100161.72;;;17.74;43.68
43804;BME280;29430;52.924;-2.388;2023-05-03T12:42:07;100156.09;;;17.64;45.21
43804;BME280;29430;52.924;-2.388;2023-05-03T12:47:00;100154.56;;;17.73;46.09
43804;BME280;29430;52.924;-2.388;2023-05-03T12:51:52;100144.19;;;17.75;44.88
43804;BME280;29430;52.924;-2.388;2023-05-03T12:57:06;100144.41;;;17.51;45.44
43804;BME280;29430;52.924;-2.388;2023-05-03T13:02:12;100137.13;;;17.40;46.29
43804;BME280;29430;52.924;-2.388;2023-05-03T13:07:28;100135.22;;;17.41;46.42
43804;BME280;29430;52.924;-2.388;2023-05-03T13:12:23;100126.19;;;17.23;46.61
43804;BME280;29430;52.924;-2.388;2023-05-03T13:17:16;100120.25;;;17.09;47.13
43804;BME280;29430;52.924;-2.388;2023-05-03T13:22:09;100116.59;;;17.04;46.58
43804;BME280;29430;52.924;-2.388;2023-05-03T13:27:00;100116.44;;;16.93;47.00
43804;BME280;29430;52.924;-2.388;2023-05-03T13:31:52;100119.94;;;16.89;46.91
43804;BME280;29430;52.924;-2.388;2023-05-03T13:36:44;100107.03;;;16.72;47.24
43804;BME280;29430;52.924;-2.388;2023-05-03T13:41:38;100104.59;;;16.59;47.97
43804;BME280;29430;52.924;-2.388;2023-05-03T13:46:32;100100.72;;;16.55;47.04
43804;BME280;29430;52.924;-2.388;2023-05-03T13:51:25;100105.75;;;16.46;48.16
43804;BME280;29430;52.924;-2.388;2023-05-03T13:56:18;100099.47;;;16.45;49.02
43804;BME280;29430;52.924;-2.388;2023-05-03T14:01:10;100086.78;;;16.39;48.15
43804;BME280;29430;52.924;-2.388;2023-05-03T14:06:03;100099.56;;;16.22;47.62
43804;BME280;29430;52.924;-2.388;2023-05-03T14:10:54;100082.63;;;16.08;48.02
43804;BME280;29430;52.924;-2.388;2023-05-03T14:15:46;100078.13;;;16.02;48.76
43804;BME280;29430;52.924;-2.388;2023-05-03T14:20:38;100073.28;;;16.04;49.04
43804;BME280;29430;52.924;-2.388;2023-05-03T14:25:30;100072.66;;;16.02;48.00
43804;BME280;29430;52.924;-2.388;2023-05-03T14:30:22;100061.63;;;15.97;49.13
43804;BME280;29430;52.924;-2.388;2023-05-03T14:35:14;100058.94;;;15.85;49.77
43804;BME280;29430;52.924;-2.388;2023-05-03T14:40:09;100055.06;;;15.81;50.50
43804;BME280;29430;52.924;-2.388;2023-05-03T14:45:00;100043.88;;;15.82;50.37
43804;BME280;29430;52.924;-2.388;2023-05-03T14:49:52;100047.69;;;15.69;50.24
43804;BME280;29430;52.924;-2.388;2023-05-03T14:54:44;100045.81;;;15.58;50.32
43804;BME280;29430;52.924;-2.388;2023-05-03T14:59:36;100025.88;;;15.46;51.00
43804;BME280;29430;52.924;-2.388;2023-05-03T15:04:28;100033.28;;;15.33;51.28
43804;BME280;29430;52.924;-2.388;2023-05-03T15:09:21;100024.19;;;15.28;50.61
43804;BME280;29430;52.924;-2.388;2023-05-03T15:14:13;100007.56;;;15.17;51.02
43804;BME280;29430;52.924;-2.388;2023-05-03T15:19:04;100034.41;;;15.09;51.24
43804;BME280;29430;52.924;-2.388;2023-05-03T15:23:57;100031.47;;;14.98;51.12
43804;BME280;29430;52.924;-2.388;2023-05-03T15:28:49;100021.59;;;14.97;51.73
43804;BME280;29430;52.924;-2.388;2023-05-03T15:33:42;100009.47;;;14.93;51.49
43804;BME280;29430;52.924;-2.388;2023-05-03T15:38:34;100008.91;;;14.91;51.52
43804;BME280;29430;52.924;-2.388;2023-05-03T15:43:26;99996.06;;;14.92;52.17
43804;BME280;29430;52.924;-2.388;2023-05-03T15:48:17;100005.13;;;14.92;51.89
43804;BME280;29430;52.924;-2.388;2023-05-03T15:53:09;100004.50;;;14.90;52.04
43804;BME280;29430;52.924;-2.388;2023-05-03T15:58:01;99983.13;;;14.87;51.87
43804;BME280;29430;52.924;-2.388;2023-05-03T16:02:53;99983.50;;;14.79;51.63
43804;BME280;29430;52.924;-2.388;2023-05-03T16:07:45;99994.56;;;14.72;51.94
43804;BME280;29430;52.924;-2.388;2023-05-03T16:12:37;99973.44;;;14.67;52.01
43804;BME280;29430;52.924;-2.388;2023-05-03T16:17:28;99988.72;;;14.68;52.82
43804;BME280;29430;52.924;-2.388;2023-05-03T16:22:20;99964.28;;;14.74;52.80
43804;BME280;29430;52.924;-2.388;2023-05-03T16:27:12;99974.34;;;14.73;52.78
43804;BME280;29430;52.924;-2.388;2023-05-03T16:32:04;99977.81;;;14.68;52.12
43804;BME280;29430;52.924;-2.388;2023-05-03T16:37:00;99964.41;;;14.67;52.54
43804;BME280;29430;52.924;-2.388;2023-05-03T16:41:51;99964.16;;;14.68;52.13
43804;BME280;29430;52.924;-2.388;2023-05-03T16:46:43;99959.78;;;14.67;51.60
43804;BME280;29430;52.924;-2.388;2023-05-03T16:51:35;99954.06;;;14.57;52.14
43804;BME280;29430;52.924;-2.388;2023-05-03T16:56:28;99951.78;;;14.54;52.24
43804;BME280;29430;52.924;-2.388;2023-05-03T17:01:21;99951.94;;;14.47;53.16
43804;BME280;29430;52.924;-2.388;2023-05-03T17:06:13;99948.34;;;14.47;53.85
43804;BME280;29430;52.924;-2.388;2023-05-03T17:11:08;99957.00;;;14.44;53.92
43804;BME280;29430;52.924;-2.388;2023-05-03T17:16:07;99935.53;;;14.36;53.85
43804;BME280;29430;52.924;-2.388;2023-05-03T17:21:01;99927.50;;;14.29;54.61
43804;BME280;29430;52.924;-2.388;2023-05-03T17:25:58;99924.75;;;14.17;54.90
43804;BME280;29430;52.924;-2.388;2023-05-03T17:30:50;99915.38;;;14.13;55.08
43804;BME280;29430;52.924;-2.388;2023-05-03T17:35:42;99912.53;;;14.08;55.51
43804;BME280;29430;52.924;-2.388;2023-05-03T17:40:34;99946.31;;;14.07;55.11
43804;BME280;29430;52.924;-2.388;2023-05-03T17:45:27;99908.94;;;13.95;55.07
43804;BME280;29430;52.924;-2.388;2023-05-03T17:50:18;99920.22;;;13.87;55.88
43804;BME280;29430;52.924;-2.388;2023-05-03T17:55:10;99920.53;;;13.79;55.70
43804;BME280;29430;52.924;-2.388;2023-05-03T18:00:03;99908.19;;;13.65;55.60
43804;BME280;29430;52.924;-2.388;2023-05-03T18:04:56;99921.53;;;13.54;56.65
43804;BME280;29430;52.924;-2.388;2023-05-03T18:09:48;99937.53;;;13.51;57.23
43804;BME280;29430;52.924;-2.388;2023-05-03T18:14:42;99927.78;;;13.43;57.83
43804;BME280;29430;52.924;-2.388;2023-05-03T18:19:34;99923.56;;;13.29;57.53
43804;BME280;29430;52.924;-2.388;2023-05-03T18:24:26;99926.09;;;13.12;58.21
43804;BME280;29430;52.924;-2.388;2023-05-03T18:29:17;99920.34;;;13.01;59.41
43804;BME280;29430;52.924;-2.388;2023-05-03T18:34:09;99917.31;;;12.91;60.08
43804;BME280;29430;52.924;-2.388;2023-05-03T18:39:01;99899.88;;;12.80;60.61
43804;BME280;29430;52.924;-2.388;2023-05-03T18:43:55;99911.53;;;12.69;61.67
43804;BME280;29430;52.924;-2.388;2023-05-03T18:48:48;99917.66;;;12.64;62.04
43804;BME280;29430;52.924;-2.388;2023-05-03T18:53:40;99894.75;;;12.53;62.47
43804;BME280;29430;52.924;-2.388;2023-05-03T18:58:31;99894.19;;;12.45;63.32
43804;BME280;29430;52.924;-2.388;2023-05-03T19:03:23;99888.84;;;12.38;63.90
43804;BME280;29430;52.924;-2.388;2023-05-03T19:08:15;99880.34;;;12.28;64.17
43804;BME280;29430;52.924;-2.388;2023-05-03T19:13:07;99890.72;;;12.19;64.44
43804;BME280;29430;52.924;-2.388;2023-05-03T19:17:59;99882.44;;;12.07;65.29
43804;BME280;29430;52.924;-2.388;2023-05-03T19:22:51;99891.50;;;12.01;66.54
43804;BME280;29430;52.924;-2.388;2023-05-03T19:27:42;99888.22;;;11.92;67.06
43804;BME280;29430;52.924;-2.388;2023-05-03T19:32:34;99893.09;;;11.83;67.66
43804;BME280;29430;52.924;-2.388;2023-05-03T19:37:29;99894.41;;;11.74;67.61
43804;BME280;29430;52.924;-2.388;2023-05-03T19:42:21;99879.88;;;11.62;68.08
43804;BME280;29430;52.924;-2.388;2023-05-03T19:47:13;99892.66;;;11.55;69.06
43804;BME280;29430;52.924;-2.388;2023-05-03T19:52:04;99894.44;;;11.42;69.07
43804;BME280;29430;52.924;-2.388;2023-05-03T19:56:56;99887.59;;;11.33;68.96
43804;BME280;29430;52.924;-2.388;2023-05-03T20:01:48;99881.78;;;11.23;69.71
43804;BME280;29430;52.924;-2.388;2023-05-03T20:06:39;99873.31;;;11.13;69.59
43804;BME280;29430;52.924;-2.388;2023-05-03T20:11:31;99863.34;;;11.00;70.31
43804;BME280;29430;52.924;-2.388;2023-05-03T20:16:23;99872.16;;;10.88;70.23
43804;BME280;29430;52.924;-2.388;2023-05-03T20:21:17;99868.84;;;10.80;71.25
43804;BME280;29430;52.924;-2.388;2023-05-03T20:26:09;99868.69;;;10.74;71.15
43804;BME280;29430;52.924;-2.388;2023-05-03T20:31:01;99870.41;;;10.62;71.27
43804;BME280;29430;52.924;-2.388;2023-05-03T20:35:53;99867.31;;;10.52;71.53
43804;BME280;29430;52.924;-2.388;2023-05-03T20:40:44;99863.59;;;10.39;72.10
43804;BME280;29430;52.924;-2.388;2023-05-03T20:45:36;99860.47;;;10.29;72.76
43804;BME280;29430;52.924;-2.388;2023-05-03T20:50:29;99862.97;;;10.17;73.08
43804;BME280;29430;52.924;-2.388;2023-05-03T20:55:21;99840.06;;;10.07;73.57
43804;BME280;29430;52.924;-2.388;2023-05-03T21:00:13;99838.00;;;9.95;74.06
43804;BME280;29430;52.924;-2.388;2023-05-03T21:05:08;99832.59;;;9.82;74.63
43804;BME280;29430;52.924;-2.388;2023-05-03T21:10:00;99827.63;;;9.72;74.87
43804;BME280;29430;52.924;-2.388;2023-05-03T21:14:52;99827.84;;;9.64;75.11
43804;BME280;29430;52.924;-2.388;2023-05-03T21:19:44;99839.28;;;9.53;75.92
43804;BME280;29430;52.924;-2.388;2023-05-03T21:24:36;99847.81;;;9.43;76.65
43804;BME280;29430;52.924;-2.388;2023-05-03T21:29:27;99847.19;;;9.34;76.71
43804;BME280;29430;52.924;-2.388;2023-05-03T21:34:19;99833.66;;;9.27;76.88
43804;BME280;29430;52.924;-2.388;2023-05-03T21:39:11;99839.25;;;9.19;76.70
43804;BME280;29430;52.924;-2.388;2023-05-03T21:44:03;99833.41;;;9.09;76.89
43804;BME280;29430;52.924;-2.388;2023-05-03T21:48:54;99839.22;;;8.99;77.61
43804;BME280;29430;52.924;-2.388;2023-05-03T21:53:47;99835.88;;;8.90;77.95
43804;BME280;29430;52.924;-2.388;2023-05-03T21:58:39;99848.31;;;8.78;78.73
43804;BME280;29430;52.924;-2.388;2023-05-03T22:03:31;99840.59;;;8.68;78.99
43804;BME280;29430;52.924;-2.388;2023-05-03T22:08:23;99848.03;;;8.59;79.53
43804;BME280;29430;52.924;-2.388;2023-05-03T22:13:15;99842.81;;;8.51;80.17
43804;BME280;29430;52.924;-2.388;2023-05-03T22:18:08;99819.00;;;8.40;80.53
43804;BME280;29430;52.924;-2.388;2023-05-03T22:23:00;99829.16;;;8.31;80.86
43804;BME280;29430;52.924;-2.388;2023-05-03T22:27:52;99817.28;;;8.25;81.03
43804;BME280;29430;52.924;-2.388;2023-05-03T22:32:44;99829.91;;;8.18;81.38
43804;BME280;29430;52.924;-2.388;2023-05-03T22:37:37;99817.19;;;8.12;81.87
43804;BME280;29430;52.924;-2.388;2023-05-03T22:42:28;99832.16;;;8.08;81.61
43804;BME280;29430;52.924;-2.388;2023-05-03T22:47:20;99824.19;;;8.00;82.18
43804;BME280;29430;52.924;-2.388;2023-05-03T22:52:12;99806.94;;;7.94;82.75
43804;BME280;29430;52.924;-2.388;2023-05-03T22:57:03;99817.66;;;7.87;82.63
43804;BME280;29430;52.924;-2.388;2023-05-03T23:01:55;99812.44;;;7.79;83.32
43804;BME280;29430;52.924;-2.388;2023-05-03T23:06:47;99819.44;;;7.74;82.81
43804;BME280;29430;52.924;-2.388;2023-05-03T23:11:39;99816.06;;;7.65;83.17
43804;BME280;29430;52.924;-2.388;2023-05-03T23:16:30;99823.91;;;7.60;83.65
43804;BME280;29430;52.924;-2.388;2023-05-03T23:21:23;99814.75;;;7.54;84.41
43804;BME280;29430;52.924;-2.388;2023-05-03T23:26:15;99819.63;;;7.44;84.17
43804;BME280;29430;52.924;-2.388;2023-05-03T23:31:07;99817.91;;;7.36;84.46
43804;BME280;29430;52.924;-2.388;2023-05-03T23:35:58;99805.00;;;7.31;84.26
43804;BME280;29430;52.924;-2.388;2023-05-03T23:40:50;99810.34;;;7.25;85.13
43804;BME280;29430;52.924;-2.388;2023-05-03T23:45:42;99821.72;;;7.20;85.83
43804;BME280;29430;52.924;-2.388;2023-05-03T23:50:33;99793.66;;;7.14;85.55
43804;BME280;29430;52.924;-2.388;2023-05-03T23:55:25;99793.41;;;7.09;86.15
